CheckWX is a tool to help pilots better visualize weather data.  It is not intended as a substitute for an official pre-flight weather briefing.

03:49:19 UTC

KTYS METAR
Mc Ghee Tyson Airport
Knoxville, Tennessee, USA
Current

56 mins ago

KTYS 220253Z 21007KT 10SM FEW035 SCT150 SCT250 26/22 A3000 RMK AO2 SLP145 T02610217 53008
Observed
Jul-22 @ 02:53 UTC
Wind
  • 210° at 7 KTS
Visibility
10 SM
Flight Rules
VFR
Cloud Levels
  • Few at 3,500' AGL
  • Scattered at 15,000' AGL
  • Scattered at 25,000' AGL
Temperature
26°C / 79°F
Dewpoint
22°C / 72°F
Humidity
79%
Altimeter
30" Hg
Pressure
1015.92 hPa
Previous

2 hours ago

KTYS 220153Z 24004KT 10SM FEW035 SCT150 SCT250 27/22 A2999 RMK AO2 SLP142 T02720222
Observed
Jul-22 @ 01:53 UTC
Wind
  • 240° at 4 KTS
Visibility
10 SM
Flight Rules
VFR
Cloud Levels
  • Few at 3,500' AGL
  • Scattered at 15,000' AGL
  • Scattered at 25,000' AGL
Temperature
27°C / 81°F
Dewpoint
22°C / 72°F
Heat Index
29°C / 85°F
Humidity
74%
Altimeter
29.99" Hg
Pressure
1015.62 hPa
Previous

3 hours ago

KTYS 220053Z 21005KT 10SM FEW035 SCT150 SCT250 27/22 A2998 RMK AO2 SLP139 T02720217
Observed
Jul-22 @ 00:53 UTC
Wind
  • 210° at 5 KTS
Visibility
10 SM
Flight Rules
VFR
Cloud Levels
  • Few at 3,500' AGL
  • Scattered at 15,000' AGL
  • Scattered at 25,000' AGL
Temperature
27°C / 81°F
Dewpoint
22°C / 72°F
Heat Index
29°C / 85°F
Humidity
74%
Altimeter
29.98" Hg
Pressure
1015.22 hPa